createdAt,value
2018-09-09T00:01:06.786Z,21.88
2018-09-09T00:03:34.948Z,21.87
2018-09-09T00:06:02.612Z,21.86
2018-09-09T00:08:30.581Z,21.86
2018-09-09T00:10:58.765Z,21.87
2018-09-09T00:13:26.404Z,21.85
2018-09-09T00:15:54.148Z,21.84
2018-09-09T00:18:22.285Z,21.84
2018-09-09T00:20:49.910Z,21.84
2018-09-09T00:23:17.578Z,21.84
2018-09-09T00:25:45.301Z,21.85
2018-09-09T00:28:12.961Z,21.84
2018-09-09T00:30:40.870Z,21.83
2018-09-09T00:33:09.096Z,21.83
2018-09-09T00:35:36.715Z,21.82
2018-09-09T00:38:04.674Z,21.82
2018-09-09T00:40:32.330Z,21.82
2018-09-09T00:42:59.937Z,21.80
2018-09-09T00:45:27.638Z,21.80
2018-09-09T00:47:55.538Z,21.80
2018-09-09T00:50:29.237Z,21.82
2018-09-09T00:53:02.729Z,21.80
2018-09-09T00:55:30.557Z,21.80
2018-09-09T00:57:58.893Z,21.78
2018-09-09T01:00:32.078Z,21.79
2018-09-09T01:02:59.968Z,21.78
2018-09-09T01:05:28.113Z,21.78
2018-09-09T01:07:55.788Z,21.78
2018-09-09T01:10:23.463Z,21.77
2018-09-09T01:12:51.116Z,21.77
2018-09-09T01:15:18.749Z,21.78
2018-09-09T01:17:46.370Z,21.77
2018-09-09T01:20:14.029Z,21.77
2018-09-09T01:22:41.688Z,21.76
2018-09-09T01:25:09.308Z,21.76
2018-09-09T01:27:37.196Z,21.76
2018-09-09T01:30:05.186Z,21.75
2018-09-09T01:32:32.817Z,21.74
2018-09-09T01:35:00.493Z,21.74
2018-09-09T01:37:28.115Z,21.74
2018-09-09T01:39:55.804Z,21.73
2018-09-09T01:42:23.661Z,21.74
2018-09-09T01:44:51.405Z,21.73
2018-09-09T01:47:19.375Z,21.72
2018-09-09T01:49:47.297Z,21.72
2018-09-09T01:52:15.274Z,21.72
2018-09-09T01:54:43.445Z,21.72
2018-09-09T01:57:11.141Z,21.71
2018-09-09T01:59:39.081Z,21.70
2018-09-09T02:02:06.740Z,21.71
2018-09-09T02:04:34.764Z,21.70
2018-09-09T02:07:02.443Z,21.71
2018-09-09T02:09:30.394Z,21.69
2018-09-09T02:11:58.410Z,21.69
2018-09-09T02:14:26.401Z,21.69
2018-09-09T02:16:54.550Z,21.69
2018-09-09T02:19:22.546Z,21.68
2018-09-09T02:21:50.344Z,21.68
2018-09-09T02:24:18.288Z,21.67
2018-09-09T02:26:45.974Z,21.67
2018-09-09T02:29:13.670Z,21.67
2018-09-09T02:31:41.284Z,21.67
2018-09-09T02:34:09.118Z,21.65
2018-09-09T02:36:36.790Z,21.66
2018-09-09T02:39:06.800Z,21.66
2018-09-09T02:41:34.764Z,21.65
2018-09-09T02:44:02.457Z,21.65
2018-09-09T02:46:30.691Z,21.65
2018-09-09T02:48:58.373Z,21.65
2018-09-09T02:51:26.013Z,21.65
2018-09-09T02:53:54.237Z,21.65
2018-09-09T02:56:22.226Z,21.65
2018-09-09T02:58:50.567Z,21.64
2018-09-09T03:01:18.846Z,21.64
2018-09-09T03:03:46.490Z,21.65
2018-09-09T03:06:14.663Z,21.63
2018-09-09T03:08:42.313Z,21.64
2018-09-09T03:11:12.979Z,21.62
2018-09-09T03:13:41.196Z,21.63
2018-09-09T03:16:09.495Z,21.62
2018-09-09T03:18:38.009Z,21.60
2018-09-09T03:21:06.149Z,21.59
2018-09-09T03:23:34.694Z,21.60
2018-09-09T03:26:02.678Z,21.60
2018-09-09T03:28:30.874Z,21.60
2018-09-09T03:30:58.610Z,21.59
2018-09-09T03:33:26.342Z,21.58
2018-09-09T03:35:54.238Z,21.58
2018-09-09T03:38:22.401Z,21.56
2018-09-09T03:40:50.705Z,21.55
2018-09-09T03:43:18.371Z,21.56
2018-09-09T03:45:46.057Z,21.54
2018-09-09T03:48:14.585Z,21.56
2018-09-09T03:50:42.207Z,21.56
2018-09-09T03:53:10.099Z,21.55
2018-09-09T03:55:38.473Z,21.54
2018-09-09T03:58:06.600Z,21.54
2018-09-09T04:00:34.572Z,21.52
2018-09-09T04:03:02.534Z,21.54
2018-09-09T04:05:30.210Z,21.53
2018-09-09T04:07:57.857Z,21.52
2018-09-09T04:10:25.886Z,21.51
2018-09-09T04:12:53.519Z,21.51
2018-09-09T04:15:21.407Z,21.51
2018-09-09T04:17:49.533Z,21.51
2018-09-09T04:20:17.221Z,21.51
2018-09-09T04:22:44.874Z,21.52
2018-09-09T04:25:12.713Z,21.51
2018-09-09T04:27:40.554Z,21.49
2018-09-09T04:30:08.808Z,21.48
2018-09-09T04:32:37.169Z,21.48
2018-09-09T04:35:04.812Z,21.47
2018-09-09T04:37:32.837Z,21.48
2018-09-09T04:40:00.429Z,21.48
2018-09-09T04:42:28.073Z,21.48
2018-09-09T04:44:55.742Z,21.47
2018-09-09T04:47:23.753Z,21.46
2018-09-09T04:49:51.716Z,21.46
2018-09-09T04:52:19.329Z,21.47
2018-09-09T04:54:47.361Z,21.46
2018-09-09T04:57:15.260Z,21.46
2018-09-09T04:59:43.149Z,21.45
2018-09-09T05:02:10.799Z,21.44
2018-09-09T05:04:38.445Z,21.43
2018-09-09T05:07:06.096Z,21.44
2018-09-09T05:09:33.710Z,21.44
2018-09-09T05:12:01.709Z,21.44
2018-09-09T05:14:29.717Z,21.44
2018-09-09T05:16:57.592Z,21.45
2018-09-09T05:19:26.015Z,21.44
2018-09-09T05:21:53.717Z,21.45
2018-09-09T05:24:21.660Z,21.45
2018-09-09T05:26:49.289Z,21.45
2018-09-09T05:29:16.962Z,21.46
2018-09-09T05:31:44.592Z,21.45
2018-09-09T05:34:12.717Z,21.45
2018-09-09T05:36:40.425Z,21.45
2018-09-09T05:39:10.094Z,21.47
2018-09-09T05:41:37.732Z,21.47
2018-09-09T05:44:05.991Z,21.47
2018-09-09T05:46:33.921Z,21.48
2018-09-09T05:49:01.690Z,21.50
2018-09-09T05:51:29.332Z,21.50
2018-09-09T05:53:57.316Z,21.50
2018-09-09T05:56:24.981Z,21.51
2018-09-09T05:58:52.725Z,21.51
2018-09-09T06:01:20.681Z,21.52
2018-09-09T06:03:48.353Z,21.52
2018-09-09T06:06:16.311Z,21.54
2018-09-09T06:08:44.608Z,21.52
2018-09-09T06:11:12.569Z,21.55
2018-09-09T06:13:40.589Z,21.56
2018-09-09T06:16:08.571Z,21.56
2018-09-09T06:18:36.527Z,21.56
2018-09-09T06:21:04.157Z,21.55
2018-09-09T06:23:31.890Z,21.55
2018-09-09T06:25:59.602Z,21.56
2018-09-09T06:28:27.225Z,21.57
2018-09-09T06:30:54.911Z,21.56
2018-09-09T06:33:22.613Z,21.57
2018-09-09T06:35:50.622Z,21.57
2018-09-09T06:38:18.284Z,21.58
2018-09-09T06:40:46.219Z,21.58
2018-09-09T06:43:14.404Z,21.58
2018-09-09T06:45:42.049Z,21.57
2018-09-09T06:48:09.782Z,21.56
2018-09-09T06:50:37.649Z,21.56
2018-09-09T06:53:05.517Z,21.57
2018-09-09T06:55:33.228Z,21.57
2018-09-09T06:58:00.869Z,21.60
2018-09-09T07:00:29.172Z,21.60
2018-09-09T07:02:57.098Z,21.63
2018-09-09T07:05:25.085Z,21.65
2018-09-09T07:07:53.161Z,21.65
2018-09-09T07:10:20.788Z,21.66
2018-09-09T07:12:49.063Z,21.65
2018-09-09T07:15:16.657Z,21.65
2018-09-09T07:17:45.110Z,21.67
2018-09-09T07:20:13.065Z,21.67
2018-09-09T07:22:40.994Z,21.68
2018-09-09T07:25:08.631Z,21.71
2018-09-09T07:27:36.357Z,21.75
2018-09-09T07:30:04.102Z,21.78
2018-09-09T07:32:31.965Z,21.81
2018-09-09T07:35:00.426Z,21.83
2018-09-09T07:37:28.094Z,21.85
2018-09-09T07:39:56.058Z,21.88
2018-09-09T07:42:23.730Z,21.88
2018-09-09T07:44:51.483Z,21.92
2018-09-09T07:47:19.120Z,21.93
2018-09-09T07:49:47.056Z,21.94
2018-09-09T07:52:15.061Z,21.94
2018-09-09T07:54:42.719Z,21.92
2018-09-09T07:57:10.338Z,21.93
2018-09-09T07:59:38.390Z,21.93
2018-09-09T08:02:06.149Z,21.95
2018-09-09T08:04:33.896Z,21.97
2018-09-09T08:07:01.501Z,21.99
2018-09-09T08:09:29.158Z,22.00
2018-09-09T08:11:57.129Z,22.03
2018-09-09T08:14:24.779Z,22.03
2018-09-09T08:16:52.506Z,22.06
2018-09-09T08:19:20.454Z,22.07
2018-09-09T08:21:48.148Z,22.07
2018-09-09T08:24:16.369Z,22.08
2018-09-09T08:26:44.298Z,22.07
2018-09-09T08:29:11.933Z,22.08
2018-09-09T08:31:39.921Z,22.09
2018-09-09T08:34:07.605Z,22.10
2018-09-09T08:36:35.324Z,22.11
2018-09-09T08:39:04.082Z,22.15
2018-09-09T08:41:31.957Z,22.17
2018-09-09T08:44:00.070Z,22.18
2018-09-09T08:46:27.716Z,22.20
2018-09-09T08:48:55.731Z,22.22
2018-09-09T08:51:23.396Z,22.23
2018-09-09T08:53:51.456Z,22.23
2018-09-09T08:56:19.181Z,22.23
2018-09-09T08:58:46.817Z,22.23
2018-09-09T09:01:14.527Z,22.25
2018-09-09T09:03:42.613Z,22.26
2018-09-09T09:06:10.533Z,22.26
2018-09-09T09:08:38.226Z,22.27
2018-09-09T09:11:06.276Z,22.30
2018-09-09T09:13:33.978Z,22.32
2018-09-09T09:16:01.698Z,22.36
2018-09-09T09:18:29.446Z,22.37
2018-09-09T09:20:57.311Z,22.41
2018-09-09T09:23:25.308Z,22.42
2018-09-09T09:25:53.970Z,22.43
2018-09-09T09:28:22.540Z,22.43
2018-09-09T09:30:51.380Z,22.42
2018-09-09T09:33:19.025Z,22.39
2018-09-09T09:35:47.731Z,22.37
2018-09-09T09:38:15.910Z,22.39
2018-09-09T09:40:43.855Z,22.42
2018-09-09T09:43:12.129Z,22.48
2018-09-09T09:45:40.923Z,22.53
2018-09-09T09:48:09.460Z,22.57
2018-09-09T09:50:37.353Z,22.59
2018-09-09T09:53:05.609Z,22.61
2018-09-09T09:55:33.307Z,22.65
2018-09-09T09:58:00.948Z,22.69
2018-09-09T10:00:34.353Z,22.74
2018-09-09T10:03:03.071Z,22.78
2018-09-09T10:05:31.176Z,22.81
2018-09-09T10:07:59.198Z,22.83
2018-09-09T10:10:26.817Z,22.86
2018-09-09T10:12:54.970Z,22.85
2018-09-09T10:15:22.675Z,22.86
2018-09-09T10:17:50.413Z,22.88
2018-09-09T10:20:18.035Z,22.92
2018-09-09T10:22:45.655Z,22.96
2018-09-09T10:25:14.008Z,22.99
2018-09-09T10:27:41.754Z,23.01
2018-09-09T10:30:09.972Z,23.03
2018-09-09T10:32:37.843Z,23.03
2018-09-09T10:35:05.522Z,23.00
2018-09-09T10:37:33.695Z,22.98
2018-09-09T10:40:01.718Z,22.99
2018-09-09T10:42:29.388Z,23.05
2018-09-09T10:44:57.399Z,23.13
2018-09-09T10:47:25.395Z,23.16
2018-09-09T10:49:53.264Z,23.14
2018-09-09T10:52:20.949Z,23.11
2018-09-09T10:54:48.674Z,23.05
2018-09-09T10:57:16.329Z,23.05
2018-09-09T10:59:44.390Z,23.04
2018-09-09T11:02:12.059Z,23.04
2018-09-09T11:04:39.703Z,23.03
2018-09-09T11:07:08.208Z,23.01
2018-09-09T11:09:36.171Z,23.02
2018-09-09T11:12:03.889Z,23.02
2018-09-09T11:14:31.622Z,23.02
2018-09-09T11:16:59.298Z,23.03
2018-09-09T11:19:26.965Z,23.00
2018-09-09T11:21:54.903Z,23.02
2018-09-09T11:24:22.593Z,23.07
2018-09-09T11:26:50.280Z,23.10
2018-09-09T11:29:18.296Z,23.14
2018-09-09T11:31:46.201Z,23.20
2018-09-09T11:34:13.841Z,23.25
2018-09-09T11:36:41.774Z,23.27
2018-09-09T11:39:09.949Z,23.30
2018-09-09T11:41:38.061Z,23.33
2018-09-09T11:44:06.150Z,23.36
2018-09-09T11:46:34.090Z,23.37
2018-09-09T11:49:02.680Z,23.39
2018-09-09T11:51:31.164Z,23.43
2018-09-09T11:53:58.865Z,23.51
2018-09-09T11:56:26.709Z,23.50
2018-09-09T11:58:55.067Z,23.51
2018-09-09T12:01:22.735Z,23.55
2018-09-09T12:03:50.704Z,23.66
2018-09-09T12:06:18.781Z,23.62
2018-09-09T12:08:46.791Z,23.60
2018-09-09T12:11:14.425Z,23.61
2018-09-09T12:13:42.102Z,23.63
2018-09-09T12:16:09.749Z,23.65
2018-09-09T12:18:37.370Z,23.67
2018-09-09T12:21:05.223Z,23.71
2018-09-09T12:23:32.947Z,23.82
2018-09-09T12:26:00.518Z,23.87
2018-09-09T12:28:28.749Z,23.84
2018-09-09T12:30:56.637Z,23.79
2018-09-09T12:33:24.553Z,23.75
2018-09-09T12:35:52.202Z,23.80
2018-09-09T12:38:20.104Z,23.82
2018-09-09T12:40:47.786Z,23.88
2018-09-09T12:43:20.957Z,23.89
2018-09-09T12:45:54.663Z,23.87
2018-09-09T12:48:27.865Z,23.84
2018-09-09T12:50:55.534Z,23.82
2018-09-09T12:53:23.537Z,23.84
2018-09-09T12:55:51.389Z,23.87
2018-09-09T12:58:19.298Z,23.96
2018-09-09T13:00:47.231Z,23.97
2018-09-09T13:03:15.192Z,23.97
2018-09-09T13:05:43.056Z,23.99
2018-09-09T13:08:11.087Z,24.02
2018-09-09T13:10:38.738Z,24.10
2018-09-09T13:13:12.359Z,24.16
2018-09-09T13:15:40.006Z,24.18
2018-09-09T13:18:07.621Z,24.22
2018-09-09T13:20:35.642Z,24.28
2018-09-09T13:23:03.263Z,24.31
2018-09-09T13:25:30.929Z,24.31
2018-09-09T13:27:58.968Z,24.27
2018-09-09T13:30:26.848Z,24.21
2018-09-09T13:32:54.778Z,24.19
2018-09-09T13:35:22.696Z,24.21
2018-09-09T13:37:50.303Z,24.27
2018-09-09T13:40:18.002Z,24.38
2018-09-09T13:42:45.930Z,24.41
2018-09-09T13:45:14.146Z,24.41
2018-09-09T13:47:41.800Z,24.41
2018-09-09T13:50:09.710Z,24.51
2018-09-09T13:52:37.719Z,24.57
2018-09-09T13:55:06.101Z,24.61
2018-09-09T13:57:34.099Z,24.58
2018-09-09T14:00:02.262Z,24.62
2018-09-09T14:02:29.915Z,24.68
2018-09-09T14:04:57.869Z,24.81
2018-09-09T14:07:25.538Z,24.84
2018-09-09T14:09:54.050Z,24.80
2018-09-09T14:12:21.702Z,24.74
2018-09-09T14:14:49.915Z,24.65
2018-09-09T14:17:18.124Z,24.57
2018-09-09T14:19:45.721Z,24.56
2018-09-09T14:22:13.395Z,24.63
2018-09-09T14:24:41.237Z,24.60
2018-09-09T14:27:09.208Z,24.59
2018-09-09T14:29:36.870Z,24.50
2018-09-09T14:32:04.486Z,24.41
2018-09-09T14:34:32.164Z,24.33
2018-09-09T14:37:00.108Z,24.28
2018-09-09T14:39:28.867Z,24.26
2018-09-09T14:41:56.481Z,24.22
2018-09-09T14:44:25.033Z,24.19
2018-09-09T14:46:53.296Z,24.18
2018-09-09T14:49:21.154Z,24.14
2018-09-09T14:51:49.181Z,24.12
2018-09-09T14:54:16.818Z,24.10
2018-09-09T14:56:44.439Z,24.08
2018-09-09T14:59:12.428Z,24.08
2018-09-09T15:01:40.056Z,24.08
2018-09-09T15:04:07.693Z,24.12
2018-09-09T15:06:35.385Z,24.16
2018-09-09T15:09:04.177Z,24.23
2018-09-09T15:11:32.073Z,24.27
2018-09-09T15:14:00.046Z,24.27
2018-09-09T15:16:28.081Z,24.32
2018-09-09T15:18:55.861Z,24.28
2018-09-09T15:21:23.602Z,24.24
2018-09-09T15:23:51.484Z,24.18
2018-09-09T15:26:19.126Z,24.14
2018-09-09T15:28:46.794Z,24.09
2018-09-09T15:31:14.690Z,24.06
2018-09-09T15:33:42.430Z,24.04
2018-09-09T15:36:10.320Z,24.00
2018-09-09T15:38:37.931Z,23.98
2018-09-09T15:41:05.607Z,23.93
2018-09-09T15:43:33.899Z,23.90
2018-09-09T15:46:01.541Z,23.89
2018-09-09T15:48:29.152Z,23.89
2018-09-09T15:50:57.092Z,23.93
2018-09-09T15:53:25.600Z,24.01
2018-09-09T15:55:53.618Z,24.11
2018-09-09T15:58:21.313Z,24.22
2018-09-09T16:00:49.773Z,24.27
2018-09-09T16:03:17.671Z,24.27
2018-09-09T16:05:45.327Z,24.21
2018-09-09T16:08:13.090Z,24.19
2018-09-09T16:10:40.977Z,24.17
2018-09-09T16:13:09.440Z,24.13
2018-09-09T16:15:37.072Z,24.13
2018-09-09T16:18:04.935Z,24.13
2018-09-09T16:20:33.187Z,24.12
2018-09-09T16:23:00.843Z,24.14
2018-09-09T16:25:28.844Z,24.13
2018-09-09T16:27:56.529Z,24.08
2018-09-09T16:30:24.836Z,24.02
2018-09-09T16:32:52.474Z,23.98
2018-09-09T16:35:20.177Z,23.96
2018-09-09T16:37:48.126Z,23.94
2018-09-09T16:40:16.079Z,23.92
2018-09-09T16:42:44.121Z,23.89
2018-09-09T16:45:12.157Z,23.87
2018-09-09T16:47:40.243Z,23.85
2018-09-09T16:50:07.865Z,23.82
2018-09-09T16:52:36.362Z,23.79
2018-09-09T16:55:03.988Z,23.76
2018-09-09T16:57:32.191Z,23.74
2018-09-09T17:00:00.640Z,23.73
2018-09-09T17:02:28.596Z,23.72
2018-09-09T17:04:56.245Z,23.71
2018-09-09T17:07:24.173Z,23.71
2018-09-09T17:09:52.515Z,23.78
2018-09-09T17:12:20.161Z,23.81
2018-09-09T17:14:47.905Z,23.75
2018-09-09T17:17:15.605Z,23.68
2018-09-09T17:19:43.241Z,23.64
2018-09-09T17:22:11.126Z,23.62
2018-09-09T17:24:39.292Z,23.60
2018-09-09T17:27:06.986Z,23.58
2018-09-09T17:29:34.601Z,23.53
2018-09-09T17:32:02.307Z,23.53
2018-09-09T17:34:30.180Z,23.53
2018-09-09T17:36:58.120Z,23.51
2018-09-09T17:39:26.152Z,23.47
2018-09-09T17:41:54.404Z,23.39
2018-09-09T17:44:22.064Z,23.40
2018-09-09T17:46:49.812Z,23.37
2018-09-09T17:49:17.505Z,23.34
2018-09-09T17:51:45.146Z,23.31
2018-09-09T17:54:13.506Z,23.29
2018-09-09T17:56:41.844Z,23.24
2018-09-09T17:59:09.734Z,23.25
2018-09-09T18:01:37.803Z,23.23
2018-09-09T18:04:05.918Z,23.21
2018-09-09T18:06:33.920Z,23.18
2018-09-09T18:09:02.431Z,23.16
2018-09-09T18:11:30.290Z,23.14
2018-09-09T18:13:58.300Z,23.14
2018-09-09T18:16:25.933Z,23.12
2018-09-09T18:18:53.606Z,23.10
2018-09-09T18:21:22.372Z,23.07
2018-09-09T18:23:50.043Z,23.06
2018-09-09T18:26:17.712Z,23.02
2018-09-09T18:28:45.369Z,23.03
2018-09-09T18:31:13.688Z,23.01
2018-09-09T18:33:41.678Z,23.00
2018-09-09T18:36:09.360Z,22.98
2018-09-09T18:38:37.016Z,22.97
2018-09-09T18:41:04.911Z,22.94
2018-09-09T18:43:32.541Z,22.94
2018-09-09T18:46:00.217Z,22.91
2018-09-09T18:48:28.216Z,22.91
2018-09-09T18:50:55.864Z,22.88
2018-09-09T18:53:23.559Z,22.87
2018-09-09T18:55:51.228Z,22.85
2018-09-09T18:58:19.184Z,22.84
2018-09-09T19:00:47.035Z,22.84
2018-09-09T19:03:14.725Z,22.83
2018-09-09T19:05:42.449Z,22.82
2018-09-09T19:08:10.498Z,22.80
2018-09-09T19:10:38.911Z,22.78
2018-09-09T19:13:08.804Z,22.77
2018-09-09T19:15:36.470Z,22.77
2018-09-09T19:18:04.161Z,22.75
2018-09-09T19:20:32.051Z,22.76
2018-09-09T19:22:59.758Z,22.74
2018-09-09T19:25:27.786Z,22.74
2018-09-09T19:27:56.151Z,22.72
2018-09-09T19:30:23.858Z,22.70
2018-09-09T19:32:51.623Z,22.69
2018-09-09T19:35:19.420Z,22.68
2018-09-09T19:37:47.365Z,22.67
2018-09-09T19:40:15.665Z,22.66
2018-09-09T19:42:43.537Z,22.68
2018-09-09T19:45:11.212Z,22.71
2018-09-09T19:47:38.838Z,22.72
2018-09-09T19:50:06.821Z,22.73
2018-09-09T19:52:35.277Z,22.73
2018-09-09T19:55:02.952Z,22.75
2018-09-09T19:57:30.671Z,22.74
2018-09-09T19:59:58.328Z,22.73
2018-09-09T20:02:26.073Z,22.74
2018-09-09T20:04:53.715Z,22.71
2018-09-09T20:07:21.419Z,22.69
2018-09-09T20:09:49.469Z,22.68
2018-09-09T20:12:17.100Z,22.66
2018-09-09T20:14:45.145Z,22.63
2018-09-09T20:17:13.084Z,22.63
2018-09-09T20:19:40.825Z,22.62
2018-09-09T20:22:09.527Z,22.62
2018-09-09T20:24:37.180Z,22.60
2018-09-09T20:27:04.868Z,22.58
2018-09-09T20:29:32.531Z,22.56
2018-09-09T20:32:00.208Z,22.54
2018-09-09T20:34:27.833Z,22.52
2018-09-09T20:36:55.741Z,22.52
2018-09-09T20:39:24.021Z,22.50
2018-09-09T20:41:51.704Z,22.49
2018-09-09T20:44:19.360Z,22.48
2018-09-09T20:46:47.125Z,22.46
2018-09-09T20:49:15.114Z,22.45
2018-09-09T20:51:42.771Z,22.45
2018-09-09T20:54:10.797Z,22.43
2018-09-09T20:56:38.589Z,22.42
2018-09-09T20:59:06.449Z,22.41
2018-09-09T21:01:34.116Z,22.40
2018-09-09T21:04:02.021Z,22.39
2018-09-09T21:06:29.663Z,22.39
2018-09-09T21:08:57.307Z,22.37
2018-09-09T21:11:25.582Z,22.36
2018-09-09T21:13:53.509Z,22.36
2018-09-09T21:16:21.522Z,22.35
2018-09-09T21:18:49.673Z,22.34
2018-09-09T21:21:17.328Z,22.32
2018-09-09T21:23:45.006Z,22.32
2018-09-09T21:26:12.981Z,22.31
2018-09-09T21:28:40.942Z,22.30
2018-09-09T21:31:08.866Z,22.31
2018-09-09T21:33:36.825Z,22.30
2018-09-09T21:36:05.061Z,22.29
2018-09-09T21:38:33.564Z,22.28
2018-09-09T21:41:01.279Z,22.27
2018-09-09T21:43:28.918Z,22.25
2018-09-09T21:45:56.838Z,22.26
2018-09-09T21:48:24.460Z,22.25
2018-09-09T21:50:52.121Z,22.24
2018-09-09T21:53:20.120Z,22.24
2018-09-09T21:55:48.368Z,22.23
2018-09-09T21:58:16.658Z,22.22
2018-09-09T22:00:50.039Z,22.20
2018-09-09T22:03:17.686Z,22.21
2018-09-09T22:05:45.855Z,22.20
2018-09-09T22:08:13.570Z,22.19
2018-09-09T22:10:41.569Z,22.17
2018-09-09T22:13:09.284Z,22.18
2018-09-09T22:15:37.475Z,22.17
2018-09-09T22:18:05.085Z,22.17
2018-09-09T22:20:33.508Z,22.16
2018-09-09T22:23:01.269Z,22.15
2018-09-09T22:25:29.159Z,22.15
2018-09-09T22:27:57.309Z,22.16
2018-09-09T22:30:25.605Z,22.16
2018-09-09T22:32:53.720Z,22.18
2018-09-09T22:35:21.573Z,22.21
2018-09-09T22:37:49.255Z,22.20
2018-09-09T22:40:17.159Z,22.20
2018-09-09T22:42:45.103Z,22.17
2018-09-09T22:45:13.068Z,22.18
2018-09-09T22:47:41.283Z,22.18
2018-09-09T22:50:09.452Z,22.17
2018-09-09T22:52:37.354Z,22.16
2018-09-09T22:55:05.025Z,22.16
2018-09-09T22:57:33.616Z,22.15
2018-09-09T23:00:01.315Z,22.15
2018-09-09T23:02:29.382Z,22.15
2018-09-09T23:04:57.383Z,22.14
2018-09-09T23:07:26.025Z,22.14
2018-09-09T23:09:53.683Z,22.14
2018-09-09T23:12:21.756Z,22.14
2018-09-09T23:14:49.721Z,22.14
2018-09-09T23:17:17.361Z,22.13
2018-09-09T23:19:45.632Z,22.12
2018-09-09T23:22:13.344Z,22.12
2018-09-09T23:24:41.030Z,22.11
2018-09-09T23:27:08.659Z,22.10
2018-09-09T23:29:36.807Z,22.10
2018-09-09T23:32:04.754Z,22.08
2018-09-09T23:34:32.389Z,22.08
2018-09-09T23:37:00.049Z,22.09
2018-09-09T23:39:27.944Z,22.07
2018-09-09T23:41:56.205Z,22.08
2018-09-09T23:44:23.840Z,22.06
2018-09-09T23:46:51.753Z,22.06
2018-09-09T23:49:20.105Z,22.05
2018-09-09T23:51:47.743Z,22.04
2018-09-09T23:54:15.487Z,22.04
2018-09-09T23:56:43.152Z,22.03
2018-09-09T23:59:11.814Z,22.04
